Terminal Aerodrome Forecast
Issued by NWS Atlanta, GA

Home | Current Version | Previous Version | Text Only | Print | Product List | Glossary On
Versions: 1 2 3 4 5 6 7 8 9 10 11 12 13 14
750
FTUS42 KFFC 201739
TAFCSG
TAF
KCSG 201739Z 2018/2118 12005KT P6SM BKN250
     FM210400 10005KT P6SM BKN030
     FM210800 09004KT P6SM BKN009 OVC020
     FM211400 11004KT P6SM BKN030=

USA.gov is the U.S. government's official web portal to all federal, state and local government web resources and services.